Funny River, AK

10:23 PM AKST on December 10, 2016 (GMT -0900)
Funny River Mile 13.5 | | Change Station

Elev 208 ft 60.51 °N, 150.80 °W | Updated 40 days ago

Clear
Clear
44.9 °F
Feels Like 44.9 °F
N
3.0
Wind Variable Wind from NE
Gusts 4.0 mph

Today
High -- | Low -- °F
--% Chance of Precip.
Yesterday
High -- | Low -- °F
Precip. -- in
Pressure 30.28 in
Visibility 10.0 miles
Clouds Clear
Dew Point 37.8 °F
Humidity 76%
Rainfall in
Snow Depth Not available.
9:59 AM 3:52 PM
Waxing Gibbous, 89% visible
METAR PASX 110716Z AUTO 07003KT 10SM CLR M22/M32 A3028 RMK AO1
Pressure 30.28 in
Visibility 10.0 miles
Clouds Clear
Dew Point 37.8 °F
Humidity 76%
Rainfall in
Snow Depth Not available.
9:59 AM 3:52 PM
Waxing Gibbous, 89% visible
METAR PASX 110716Z AUTO 07003KT 10SM CLR M22/M32 A3028 RMK AO1

10-Day Weather Forecast

Almanac

Astronomy

Dec. 10, 2016 Rise Set
Actual Time
Civil Twilight
Nautical Twilight
Astronomical Twilight
Moon
Length of Visible Light
Length of Day
Tomorrow will be .
, % of the Moon is Illuminated

Today's Extremes

State Highs State Lows

Community

WunderPhotos

Upload Photos

1,956,707 photos uploaded!

WunderBlog® & News

Nearby

Air Quality

  Air Quality AQ Index Pollutant
Not available.

Snow Depth

Station Depth Elevation

Earthquake Activity

City Distance Mag. Time & Date
Minimum magnitude displayed is 2.5.

Coastal Water Temperatures

Place Temperature

Stations

Nearby Weather Stations

Station Location Temp. Windchill Dew Point Humidity Wind Precip. Elev Updated Type
                   

Watches & Warnings

There are currently no watches in effect.